sensor_id;sensor_type;location;lat;lon;timestamp;temperature;humidity
15713;DHT22;7957;51.608;6.916;2023-02-23T00:01:11;9.00;99.90
15713;DHT22;7957;51.608;6.916;2023-02-23T00:03:38;9.00;99.90
15713;DHT22;7957;51.608;6.916;2023-02-23T00:06:06;9.00;99.90
15713;DHT22;7957;51.608;6.916;2023-02-23T00:08:33;9.00;99.90
15713;DHT22;7957;51.608;6.916;2023-02-23T00:11:02;9.00;99.90
15713;DHT22;7957;51.608;6.916;2023-02-23T00:13:30;9.00;99.90
15713;DHT22;7957;51.608;6.916;2023-02-23T00:16:04;9.00;99.90
15713;DHT22;7957;51.608;6.916;2023-02-23T00:18:32;9.00;99.90
15713;DHT22;7957;51.608;6.916;2023-02-23T00:21:10;9.00;99.90
15713;DHT22;7957;51.608;6.916;2023-02-23T00:23:40;9.00;99.90
15713;DHT22;7957;51.608;6.916;2023-02-23T00:26:06;9.00;99.90
15713;DHT22;7957;51.608;6.916;2023-02-23T00:28:33;8.90;99.90
15713;DHT22;7957;51.608;6.916;2023-02-23T00:31:02;9.00;99.90
15713;DHT22;7957;51.608;6.916;2023-02-23T00:33:29;8.90;99.90
15713;DHT22;7957;51.608;6.916;2023-02-23T00:36:03;8.90;99.90
15713;DHT22;7957;51.608;6.916;2023-02-23T00:38:35;8.90;99.90
15713;DHT22;7957;51.608;6.916;2023-02-23T00:41:05;8.90;99.90
15713;DHT22;7957;51.608;6.916;2023-02-23T00:43:34;8.90;99.90
15713;DHT22;7957;51.608;6.916;2023-02-23T00:46:03;8.90;99.90
15713;DHT22;7957;51.608;6.916;2023-02-23T00:48:33;8.90;99.90
15713;DHT22;7957;51.608;6.916;2023-02-23T00:51:02;8.90;99.90
15713;DHT22;7957;51.608;6.916;2023-02-23T00:53:30;8.90;99.90
15713;DHT22;7957;51.608;6.916;2023-02-23T00:55:57;8.90;99.90
15713;DHT22;7957;51.608;6.916;2023-02-23T00:58:25;8.90;99.90
15713;DHT22;7957;51.608;6.916;2023-02-23T01:00:53;8.90;99.90
15713;DHT22;7957;51.608;6.916;2023-02-23T01:03:21;8.90;99.90
15713;DHT22;7957;51.608;6.916;2023-02-23T01:05:48;8.90;99.90
15713;DHT22;7957;51.608;6.916;2023-02-23T01:08:16;8.90;99.90
15713;DHT22;7957;51.608;6.916;2023-02-23T01:10:43;8.80;99.90
15713;DHT22;7957;51.608;6.916;2023-02-23T01:13:17;8.80;99.90
15713;DHT22;7957;51.608;6.916;2023-02-23T01:15:44;8.80;99.90
15713;DHT22;7957;51.608;6.916;2023-02-23T01:18:13;8.80;99.90
15713;DHT22;7957;51.608;6.916;2023-02-23T01:20:42;8.80;99.90
15713;DHT22;7957;51.608;6.916;2023-02-23T01:23:10;8.80;99.90
15713;DHT22;7957;51.608;6.916;2023-02-23T01:25:38;8.80;99.90
15713;DHT22;7957;51.608;6.916;2023-02-23T01:28:05;8.80;99.90
15713;DHT22;7957;51.608;6.916;2023-02-23T01:30:33;8.80;99.90
15713;DHT22;7957;51.608;6.916;2023-02-23T01:33:00;8.80;99.90
15713;DHT22;7957;51.608;6.916;2023-02-23T01:35:28;8.80;99.90
15713;DHT22;7957;51.608;6.916;2023-02-23T01:37:57;8.80;99.90
15713;DHT22;7957;51.608;6.916;2023-02-23T01:40:25;8.80;99.90
15713;DHT22;7957;51.608;6.916;2023-02-23T01:42:56;8.80;99.90
15713;DHT22;7957;51.608;6.916;2023-02-23T01:45:28;8.80;99.90
15713;DHT22;7957;51.608;6.916;2023-02-23T01:48:01;8.80;99.90
15713;DHT22;7957;51.608;6.916;2023-02-23T01:50:35;8.80;99.90
15713;DHT22;7957;51.608;6.916;2023-02-23T01:53:06;8.70;99.90
15713;DHT22;7957;51.608;6.916;2023-02-23T01:55:33;8.70;99.90
15713;DHT22;7957;51.608;6.916;2023-02-23T01:58:05;8.70;99.90
15713;DHT22;7957;51.608;6.916;2023-02-23T02:00:32;8.70;99.90
15713;DHT22;7957;51.608;6.916;2023-02-23T02:03:05;8.70;99.90
15713;DHT22;7957;51.608;6.916;2023-02-23T02:05:35;8.70;99.90
15713;DHT22;7957;51.608;6.916;2023-02-23T02:08:04;8.70;99.90
15713;DHT22;7957;51.608;6.916;2023-02-23T02:10:32;8.70;99.90
15713;DHT22;7957;51.608;6.916;2023-02-23T02:13:09;8.70;99.90
15713;DHT22;7957;51.608;6.916;2023-02-23T02:15:51;8.70;99.90
15713;DHT22;7957;51.608;6.916;2023-02-23T02:18:27;8.70;99.90
15713;DHT22;7957;51.608;6.916;2023-02-23T02:21:36;8.70;99.90
15713;DHT22;7957;51.608;6.916;2023-02-23T02:24:36;8.70;99.90
15713;DHT22;7957;51.608;6.916;2023-02-23T02:27:17;8.70;99.90
15713;DHT22;7957;51.608;6.916;2023-02-23T02:36:13;8.60;99.90
15713;DHT22;7957;51.608;6.916;2023-02-23T02:38:52;8.70;99.90
15713;DHT22;7957;51.608;6.916;2023-02-23T02:41:30;8.70;99.90
15713;DHT22;7957;51.608;6.916;2023-02-23T02:44:09;8.70;99.90
15713;DHT22;7957;51.608;6.916;2023-02-23T02:46:40;8.70;99.90
15713;DHT22;7957;51.608;6.916;2023-02-23T02:49:18;8.70;99.90
15713;DHT22;7957;51.608;6.916;2023-02-23T02:51:53;8.60;99.90
15713;DHT22;7957;51.608;6.916;2023-02-23T02:54:27;8.60;99.90
15713;DHT22;7957;51.608;6.916;2023-02-23T02:56:58;8.60;99.90
15713;DHT22;7957;51.608;6.916;2023-02-23T02:59:26;8.60;99.90
15713;DHT22;7957;51.608;6.916;2023-02-23T03:02:16;8.70;99.90
15713;DHT22;7957;51.608;6.916;2023-02-23T03:05:02;8.60;99.90
15713;DHT22;7957;51.608;6.916;2023-02-23T03:07:52;8.60;99.90
15713;DHT22;7957;51.608;6.916;2023-02-23T03:10:43;8.60;99.90
15713;DHT22;7957;51.608;6.916;2023-02-23T03:13:38;8.60;99.90
15713;DHT22;7957;51.608;6.916;2023-02-23T03:16:30;8.60;99.90
15713;DHT22;7957;51.608;6.916;2023-02-23T03:19:24;8.60;99.90
15713;DHT22;7957;51.608;6.916;2023-02-23T03:22:16;8.60;99.90
15713;DHT22;7957;51.608;6.916;2023-02-23T03:25:04;8.60;99.90
15713;DHT22;7957;51.608;6.916;2023-02-23T03:27:56;8.60;99.90
15713;DHT22;7957;51.608;6.916;2023-02-23T03:30:48;8.60;99.90
15713;DHT22;7957;51.608;6.916;2023-02-23T03:33:42;8.60;99.90
15713;DHT22;7957;51.608;6.916;2023-02-23T03:36:31;8.60;99.90
15713;DHT22;7957;51.608;6.916;2023-02-23T03:39:22;8.60;99.90
15713;DHT22;7957;51.608;6.916;2023-02-23T03:42:14;8.60;99.90
15713;DHT22;7957;51.608;6.916;2023-02-23T03:45:04;8.60;99.90
15713;DHT22;7957;51.608;6.916;2023-02-23T03:47:52;8.60;99.90
15713;DHT22;7957;51.608;6.916;2023-02-23T03:50:43;8.60;99.90
15713;DHT22;7957;51.608;6.916;2023-02-23T03:53:32;8.60;99.90
15713;DHT22;7957;51.608;6.916;2023-02-23T03:56:19;8.60;99.90
15713;DHT22;7957;51.608;6.916;2023-02-23T03:59:07;8.60;99.90
15713;DHT22;7957;51.608;6.916;2023-02-23T04:01:54;8.60;99.90
15713;DHT22;7957;51.608;6.916;2023-02-23T04:04:39;8.60;99.90
15713;DHT22;7957;51.608;6.916;2023-02-23T04:07:26;8.60;99.90
15713;DHT22;7957;51.608;6.916;2023-02-23T04:10:10;8.60;99.90
15713;DHT22;7957;51.608;6.916;2023-02-23T04:13:00;8.60;99.90
15713;DHT22;7957;51.608;6.916;2023-02-23T04:15:46;8.60;99.90
15713;DHT22;7957;51.608;6.916;2023-02-23T04:18:15;8.60;99.90
15713;DHT22;7957;51.608;6.916;2023-02-23T04:20:42;8.50;99.90
15713;DHT22;7957;51.608;6.916;2023-02-23T04:23:09;8.60;99.90
15713;DHT22;7957;51.608;6.916;2023-02-23T04:25:36;8.50;99.90
15713;DHT22;7957;51.608;6.916;2023-02-23T04:28:04;8.60;99.90
15713;DHT22;7957;51.608;6.916;2023-02-23T04:30:32;8.50;99.90
15713;DHT22;7957;51.608;6.916;2023-02-23T04:32:59;8.50;99.90
15713;DHT22;7957;51.608;6.916;2023-02-23T04:35:28;8.50;99.90
15713;DHT22;7957;51.608;6.916;2023-02-23T04:37:56;8.50;99.90
15713;DHT22;7957;51.608;6.916;2023-02-23T04:40:23;8.50;99.90
15713;DHT22;7957;51.608;6.916;2023-02-23T04:42:51;8.50;99.90
15713;DHT22;7957;51.608;6.916;2023-02-23T04:45:18;8.50;99.90
15713;DHT22;7957;51.608;6.916;2023-02-23T04:47:45;8.50;99.90
15713;DHT22;7957;51.608;6.916;2023-02-23T04:50:12;8.50;99.90
15713;DHT22;7957;51.608;6.916;2023-02-23T04:52:41;8.50;99.90
15713;DHT22;7957;51.608;6.916;2023-02-23T04:55:14;8.50;99.90
15713;DHT22;7957;51.608;6.916;2023-02-23T04:57:42;8.50;99.90
15713;DHT22;7957;51.608;6.916;2023-02-23T05:00:10;8.50;99.90
15713;DHT22;7957;51.608;6.916;2023-02-23T05:02:37;8.50;99.90
15713;DHT22;7957;51.608;6.916;2023-02-23T05:05:04;8.50;99.90
15713;DHT22;7957;51.608;6.916;2023-02-23T05:07:32;8.50;99.90
15713;DHT22;7957;51.608;6.916;2023-02-23T05:10:00;8.50;99.90
15713;DHT22;7957;51.608;6.916;2023-02-23T05:12:27;8.40;99.90
15713;DHT22;7957;51.608;6.916;2023-02-23T05:14:55;8.50;99.90
15713;DHT22;7957;51.608;6.916;2023-02-23T05:17:22;8.40;99.90
15713;DHT22;7957;51.608;6.916;2023-02-23T05:19:49;8.40;99.90
15713;DHT22;7957;51.608;6.916;2023-02-23T05:22:16;8.40;99.90
15713;DHT22;7957;51.608;6.916;2023-02-23T05:24:43;8.40;99.90
15713;DHT22;7957;51.608;6.916;2023-02-23T05:27:12;8.40;99.90
15713;DHT22;7957;51.608;6.916;2023-02-23T05:29:40;8.40;99.90
15713;DHT22;7957;51.608;6.916;2023-02-23T05:32:07;8.40;99.90
15713;DHT22;7957;51.608;6.916;2023-02-23T05:34:34;8.40;99.90
15713;DHT22;7957;51.608;6.916;2023-02-23T05:37:01;8.40;99.90
15713;DHT22;7957;51.608;6.916;2023-02-23T05:39:28;8.40;99.90
15713;DHT22;7957;51.608;6.916;2023-02-23T05:41:55;8.40;99.90
15713;DHT22;7957;51.608;6.916;2023-02-23T05:44:23;8.40;99.90
15713;DHT22;7957;51.608;6.916;2023-02-23T05:46:50;8.40;99.90
15713;DHT22;7957;51.608;6.916;2023-02-23T05:49:18;8.40;99.90
15713;DHT22;7957;51.608;6.916;2023-02-23T05:51:45;8.40;99.90
15713;DHT22;7957;51.608;6.916;2023-02-23T05:54:12;8.40;99.90
15713;DHT22;7957;51.608;6.916;2023-02-23T05:56:39;8.40;99.90
15713;DHT22;7957;51.608;6.916;2023-02-23T05:59:06;8.40;99.90
15713;DHT22;7957;51.608;6.916;2023-02-23T06:01:35;8.40;99.90
15713;DHT22;7957;51.608;6.916;2023-02-23T06:04:02;8.40;99.90
15713;DHT22;7957;51.608;6.916;2023-02-23T06:06:29;8.40;99.90
15713;DHT22;7957;51.608;6.916;2023-02-23T06:08:56;8.40;99.90
15713;DHT22;7957;51.608;6.916;2023-02-23T06:11:23;8.40;99.90
15713;DHT22;7957;51.608;6.916;2023-02-23T06:13:50;8.40;99.90
15713;DHT22;7957;51.608;6.916;2023-02-23T06:16:17;8.40;99.90
15713;DHT22;7957;51.608;6.916;2023-02-23T06:18:47;8.40;99.90
15713;DHT22;7957;51.608;6.916;2023-02-23T06:21:14;8.40;99.90
15713;DHT22;7957;51.608;6.916;2023-02-23T06:23:41;8.40;99.90
15713;DHT22;7957;51.608;6.916;2023-02-23T06:26:08;8.40;99.90
15713;DHT22;7957;51.608;6.916;2023-02-23T06:28:35;8.40;99.90
15713;DHT22;7957;51.608;6.916;2023-02-23T06:31:02;8.40;99.90
15713;DHT22;7957;51.608;6.916;2023-02-23T06:33:31;8.40;99.90
15713;DHT22;7957;51.608;6.916;2023-02-23T06:35:59;8.40;99.90
15713;DHT22;7957;51.608;6.916;2023-02-23T06:38:26;8.40;99.90
15713;DHT22;7957;51.608;6.916;2023-02-23T06:40:53;8.40;99.90
15713;DHT22;7957;51.608;6.916;2023-02-23T06:43:20;8.40;99.90
15713;DHT22;7957;51.608;6.916;2023-02-23T06:45:47;8.40;99.90
15713;DHT22;7957;51.608;6.916;2023-02-23T06:48:14;8.40;99.90
15713;DHT22;7957;51.608;6.916;2023-02-23T06:50:42;8.40;99.90
15713;DHT22;7957;51.608;6.916;2023-02-23T06:53:10;8.40;99.90
15713;DHT22;7957;51.608;6.916;2023-02-23T06:55:37;8.40;99.90
15713;DHT22;7957;51.608;6.916;2023-02-23T06:58:04;8.40;99.90
15713;DHT22;7957;51.608;6.916;2023-02-23T07:00:32;8.40;99.90
15713;DHT22;7957;51.608;6.916;2023-02-23T07:02:59;8.40;99.90
15713;DHT22;7957;51.608;6.916;2023-02-23T07:05:26;8.40;99.90
15713;DHT22;7957;51.608;6.916;2023-02-23T07:07:54;8.40;99.90
15713;DHT22;7957;51.608;6.916;2023-02-23T07:10:22;8.40;99.90
15713;DHT22;7957;51.608;6.916;2023-02-23T07:12:49;8.40;99.90
15713;DHT22;7957;51.608;6.916;2023-02-23T07:15:16;8.40;99.90
15713;DHT22;7957;51.608;6.916;2023-02-23T07:17:45;8.40;99.90
15713;DHT22;7957;51.608;6.916;2023-02-23T07:20:14;8.40;99.90
15713;DHT22;7957;51.608;6.916;2023-02-23T07:22:41;8.40;99.90
15713;DHT22;7957;51.608;6.916;2023-02-23T07:25:09;8.40;99.90
15713;DHT22;7957;51.608;6.916;2023-02-23T07:27:37;8.40;99.90
15713;DHT22;7957;51.608;6.916;2023-02-23T07:30:07;8.40;99.90
15713;DHT22;7957;51.608;6.916;2023-02-23T07:32:34;8.40;99.90
15713;DHT22;7957;51.608;6.916;2023-02-23T07:35:02;8.40;99.90
15713;DHT22;7957;51.608;6.916;2023-02-23T07:37:29;8.40;99.90
15713;DHT22;7957;51.608;6.916;2023-02-23T07:39:56;8.40;99.90
15713;DHT22;7957;51.608;6.916;2023-02-23T07:42:23;8.40;99.90
15713;DHT22;7957;51.608;6.916;2023-02-23T07:44:52;8.40;99.90
15713;DHT22;7957;51.608;6.916;2023-02-23T07:47:20;8.30;99.90
15713;DHT22;7957;51.608;6.916;2023-02-23T07:49:55;8.40;99.90
15713;DHT22;7957;51.608;6.916;2023-02-23T07:52:22;8.40;99.90
15713;DHT22;7957;51.608;6.916;2023-02-23T07:54:49;8.40;99.90
15713;DHT22;7957;51.608;6.916;2023-02-23T07:57:16;8.40;99.90
15713;DHT22;7957;51.608;6.916;2023-02-23T07:59:43;8.40;99.90
15713;DHT22;7957;51.608;6.916;2023-02-23T08:02:12;8.40;99.90
15713;DHT22;7957;51.608;6.916;2023-02-23T08:04:39;8.40;99.90
15713;DHT22;7957;51.608;6.916;2023-02-23T08:07:07;8.40;99.90
15713;DHT22;7957;51.608;6.916;2023-02-23T08:09:35;8.40;99.90
15713;DHT22;7957;51.608;6.916;2023-02-23T08:12:03;8.40;99.90
15713;DHT22;7957;51.608;6.916;2023-02-23T08:14:30;8.40;99.90
15713;DHT22;7957;51.608;6.916;2023-02-23T08:16:56;8.40;99.90
15713;DHT22;7957;51.608;6.916;2023-02-23T08:19:27;8.40;99.90
15713;DHT22;7957;51.608;6.916;2023-02-23T08:21:55;8.40;99.90
15713;DHT22;7957;51.608;6.916;2023-02-23T08:24:22;8.40;99.90
15713;DHT22;7957;51.608;6.916;2023-02-23T08:26:50;8.40;99.90
15713;DHT22;7957;51.608;6.916;2023-02-23T08:29:18;8.40;99.90
15713;DHT22;7957;51.608;6.916;2023-02-23T08:31:45;8.40;99.90
15713;DHT22;7957;51.608;6.916;2023-02-23T08:34:12;8.40;99.90
15713;DHT22;7957;51.608;6.916;2023-02-23T08:36:42;8.40;99.90
15713;DHT22;7957;51.608;6.916;2023-02-23T08:39:10;8.40;99.90
15713;DHT22;7957;51.608;6.916;2023-02-23T08:41:37;8.40;99.90
15713;DHT22;7957;51.608;6.916;2023-02-23T08:44:04;8.40;99.90
15713;DHT22;7957;51.608;6.916;2023-02-23T08:46:31;8.40;99.90
15713;DHT22;7957;51.608;6.916;2023-02-23T08:48:59;8.40;99.90
15713;DHT22;7957;51.608;6.916;2023-02-23T08:51:26;8.40;99.90
15713;DHT22;7957;51.608;6.916;2023-02-23T08:53:54;8.40;99.90
15713;DHT22;7957;51.608;6.916;2023-02-23T08:56:22;8.40;99.90
15713;DHT22;7957;51.608;6.916;2023-02-23T08:58:50;8.40;99.90
15713;DHT22;7957;51.608;6.916;2023-02-23T09:01:19;8.40;99.90
15713;DHT22;7957;51.608;6.916;2023-02-23T09:03:46;8.40;99.90
15713;DHT22;7957;51.608;6.916;2023-02-23T09:06:15;8.40;99.90
15713;DHT22;7957;51.608;6.916;2023-02-23T09:08:42;8.40;99.90
15713;DHT22;7957;51.608;6.916;2023-02-23T09:11:11;8.40;99.90
15713;DHT22;7957;51.608;6.916;2023-02-23T09:13:38;8.40;99.90
15713;DHT22;7957;51.608;6.916;2023-02-23T09:16:07;8.40;99.90
15713;DHT22;7957;51.608;6.916;2023-02-23T09:18:34;8.40;99.90
15713;DHT22;7957;51.608;6.916;2023-02-23T09:21:02;8.50;99.90
15713;DHT22;7957;51.608;6.916;2023-02-23T09:23:33;8.50;99.90
15713;DHT22;7957;51.608;6.916;2023-02-23T09:26:02;8.50;99.90
15713;DHT22;7957;51.608;6.916;2023-02-23T09:28:31;8.50;99.90
15713;DHT22;7957;51.608;6.916;2023-02-23T09:31:03;8.50;99.90
15713;DHT22;7957;51.608;6.916;2023-02-23T09:33:30;8.50;99.90
15713;DHT22;7957;51.608;6.916;2023-02-23T09:35:57;8.60;99.90
15713;DHT22;7957;51.608;6.916;2023-02-23T09:38:24;8.60;99.90
15713;DHT22;7957;51.608;6.916;2023-02-23T09:40:53;8.60;99.90
15713;DHT22;7957;51.608;6.916;2023-02-23T09:43:27;8.60;99.90
15713;DHT22;7957;51.608;6.916;2023-02-23T09:46:06;8.70;99.90
15713;DHT22;7957;51.608;6.916;2023-02-23T09:48:38;8.70;99.90
15713;DHT22;7957;51.608;6.916;2023-02-23T09:51:06;8.70;99.90
15713;DHT22;7957;51.608;6.916;2023-02-23T09:53:37;8.80;99.90
15713;DHT22;7957;51.608;6.916;2023-02-23T09:56:11;8.80;99.90
15713;DHT22;7957;51.608;6.916;2023-02-23T09:58:39;8.80;99.90
15713;DHT22;7957;51.608;6.916;2023-02-23T10:01:41;8.80;99.90
15713;DHT22;7957;51.608;6.916;2023-02-23T10:04:15;8.90;99.90
15713;DHT22;7957;51.608;6.916;2023-02-23T10:06:51;8.90;99.90
15713;DHT22;7957;51.608;6.916;2023-02-23T10:09:24;8.90;99.90
15713;DHT22;7957;51.608;6.916;2023-02-23T10:11:59;9.00;99.90
15713;DHT22;7957;51.608;6.916;2023-02-23T10:14:40;9.00;99.90
15713;DHT22;7957;51.608;6.916;2023-02-23T10:17:21;9.00;99.90
15713;DHT22;7957;51.608;6.916;2023-02-23T10:19:55;9.00;99.90
15713;DHT22;7957;51.608;6.916;2023-02-23T10:22:25;9.00;99.90
15713;DHT22;7957;51.608;6.916;2023-02-23T10:24:55;9.00;99.90
15713;DHT22;7957;51.608;6.916;2023-02-23T10:27:31;9.00;99.90
15713;DHT22;7957;51.608;6.916;2023-02-23T10:30:03;9.00;99.90
15713;DHT22;7957;51.608;6.916;2023-02-23T10:32:40;9.00;99.90
15713;DHT22;7957;51.608;6.916;2023-02-23T10:35:13;9.00;99.90
15713;DHT22;7957;51.608;6.916;2023-02-23T10:37:40;9.00;99.90
15713;DHT22;7957;51.608;6.916;2023-02-23T10:40:13;9.00;99.90
15713;DHT22;7957;51.608;6.916;2023-02-23T10:42:40;9.00;99.90
15713;DHT22;7957;51.608;6.916;2023-02-23T10:45:12;9.00;99.90
15713;DHT22;7957;51.608;6.916;2023-02-23T10:47:51;9.00;99.90
15713;DHT22;7957;51.608;6.916;2023-02-23T10:50:20;9.00;99.90
15713;DHT22;7957;51.608;6.916;2023-02-23T10:52:54;9.00;99.90
15713;DHT22;7957;51.608;6.916;2023-02-23T10:55:24;8.90;99.90
15713;DHT22;7957;51.608;6.916;2023-02-23T10:58:08;8.90;99.90
15713;DHT22;7957;51.608;6.916;2023-02-23T11:00:53;8.90;99.90
15713;DHT22;7957;51.608;6.916;2023-02-23T11:03:29;8.90;99.90
15713;DHT22;7957;51.608;6.916;2023-02-23T11:05:58;8.90;99.90
15713;DHT22;7957;51.608;6.916;2023-02-23T11:08:31;8.90;99.90
15713;DHT22;7957;51.608;6.916;2023-02-23T11:11:25;8.90;99.90
15713;DHT22;7957;51.608;6.916;2023-02-23T11:13:54;9.00;99.90
15713;DHT22;7957;51.608;6.916;2023-02-23T11:16:22;9.00;99.90
15713;DHT22;7957;51.608;6.916;2023-02-23T11:18:54;9.10;99.90
15713;DHT22;7957;51.608;6.916;2023-02-23T11:21:24;9.10;99.90
15713;DHT22;7957;51.608;6.916;2023-02-23T11:23:53;9.10;99.90
15713;DHT22;7957;51.608;6.916;2023-02-23T11:26:30;9.10;99.90
15713;DHT22;7957;51.608;6.916;2023-02-23T11:29:00;9.20;99.90
15713;DHT22;7957;51.608;6.916;2023-02-23T11:31:32;9.20;99.90
15713;DHT22;7957;51.608;6.916;2023-02-23T11:34:02;9.20;99.90
15713;DHT22;7957;51.608;6.916;2023-02-23T11:36:31;9.20;99.90
15713;DHT22;7957;51.608;6.916;2023-02-23T11:39:16;9.20;99.90
15713;DHT22;7957;51.608;6.916;2023-02-23T11:41:44;9.30;99.90
15713;DHT22;7957;51.608;6.916;2023-02-23T11:44:20;9.30;99.90
15713;DHT22;7957;51.608;6.916;2023-02-23T11:46:49;9.30;99.90
15713;DHT22;7957;51.608;6.916;2023-02-23T11:49:20;9.30;99.90
15713;DHT22;7957;51.608;6.916;2023-02-23T11:51:49;9.30;99.90
15713;DHT22;7957;51.608;6.916;2023-02-23T11:54:22;9.20;99.90
15713;DHT22;7957;51.608;6.916;2023-02-23T11:56:51;9.20;99.90
15713;DHT22;7957;51.608;6.916;2023-02-23T11:59:24;9.20;99.90
15713;DHT22;7957;51.608;6.916;2023-02-23T12:01:54;9.20;99.90
15713;DHT22;7957;51.608;6.916;2023-02-23T12:04:29;9.20;99.90
15713;DHT22;7957;51.608;6.916;2023-02-23T12:07:24;9.20;99.90
15713;DHT22;7957;51.608;6.916;2023-02-23T12:09:59;9.20;99.90
15713;DHT22;7957;51.608;6.916;2023-02-23T12:12:28;9.10;99.90
15713;DHT22;7957;51.608;6.916;2023-02-23T12:14:59;9.10;99.90
15713;DHT22;7957;51.608;6.916;2023-02-23T12:18:04;9.10;99.90
15713;DHT22;7957;51.608;6.916;2023-02-23T12:20:39;9.10;99.90
15713;DHT22;7957;51.608;6.916;2023-02-23T12:23:10;9.10;99.90
15713;DHT22;7957;51.608;6.916;2023-02-23T12:25:42;9.10;99.90
15713;DHT22;7957;51.608;6.916;2023-02-23T12:28:16;9.10;99.90
15713;DHT22;7957;51.608;6.916;2023-02-23T12:30:49;9.10;99.90
15713;DHT22;7957;51.608;6.916;2023-02-23T12:33:20;9.00;99.90
15713;DHT22;7957;51.608;6.916;2023-02-23T12:35:55;9.00;99.90
15713;DHT22;7957;51.608;6.916;2023-02-23T12:38:28;9.00;99.90
15713;DHT22;7957;51.608;6.916;2023-02-23T12:41:02;9.00;99.90
15713;DHT22;7957;51.608;6.916;2023-02-23T12:43:36;9.00;99.90
15713;DHT22;7957;51.608;6.916;2023-02-23T12:46:08;9.00;99.90
15713;DHT22;7957;51.608;6.916;2023-02-23T12:48:45;9.00;99.90
15713;DHT22;7957;51.608;6.916;2023-02-23T12:51:20;9.00;99.90
15713;DHT22;7957;51.608;6.916;2023-02-23T12:53:50;9.00;99.90
15713;DHT22;7957;51.608;6.916;2023-02-23T12:56:30;8.90;99.90
15713;DHT22;7957;51.608;6.916;2023-02-23T12:59:05;8.90;99.90
15713;DHT22;7957;51.608;6.916;2023-02-23T13:01:42;8.90;99.90
15713;DHT22;7957;51.608;6.916;2023-02-23T13:04:22;8.90;99.90
15713;DHT22;7957;51.608;6.916;2023-02-23T13:06:56;8.80;99.90
15713;DHT22;7957;51.608;6.916;2023-02-23T13:09:35;8.90;99.90
15713;DHT22;7957;51.608;6.916;2023-02-23T13:12:18;8.90;99.90
15713;DHT22;7957;51.608;6.916;2023-02-23T13:14:54;8.80;99.90
15713;DHT22;7957;51.608;6.916;2023-02-23T13:17:30;8.80;99.90
15713;DHT22;7957;51.608;6.916;2023-02-23T13:20:03;8.80;99.90
15713;DHT22;7957;51.608;6.916;2023-02-23T13:22:41;8.80;99.90
15713;DHT22;7957;51.608;6.916;2023-02-23T13:25:22;8.80;99.90
15713;DHT22;7957;51.608;6.916;2023-02-23T13:27:55;8.80;99.90
15713;DHT22;7957;51.608;6.916;2023-02-23T13:30:24;8.70;99.90
15713;DHT22;7957;51.608;6.916;2023-02-23T13:32:54;8.70;99.90
15713;DHT22;7957;51.608;6.916;2023-02-23T13:35:23;8.70;99.90
15713;DHT22;7957;51.608;6.916;2023-02-23T13:37:56;8.70;99.90
15713;DHT22;7957;51.608;6.916;2023-02-23T13:40:30;8.70;99.90
15713;DHT22;7957;51.608;6.916;2023-02-23T13:43:07;8.70;99.90
15713;DHT22;7957;51.608;6.916;2023-02-23T13:45:51;8.70;99.90
15713;DHT22;7957;51.608;6.916;2023-02-23T13:48:29;8.70;99.90
15713;DHT22;7957;51.608;6.916;2023-02-23T13:51:04;8.70;99.90
15713;DHT22;7957;51.608;6.916;2023-02-23T13:53:41;8.70;99.90
15713;DHT22;7957;51.608;6.916;2023-02-23T13:56:09;8.70;99.90
15713;DHT22;7957;51.608;6.916;2023-02-23T13:58:45;8.70;99.90
15713;DHT22;7957;51.608;6.916;2023-02-23T14:01:15;8.70;99.90
15713;DHT22;7957;51.608;6.916;2023-02-23T14:03:45;8.60;99.90
15713;DHT22;7957;51.608;6.916;2023-02-23T14:06:14;8.70;99.90
15713;DHT22;7957;51.608;6.916;2023-02-23T14:08:51;8.70;99.90
15713;DHT22;7957;51.608;6.916;2023-02-23T14:11:40;8.70;99.90
15713;DHT22;7957;51.608;6.916;2023-02-23T14:14:12;8.70;99.90
15713;DHT22;7957;51.608;6.916;2023-02-23T14:16:42;8.70;99.90
15713;DHT22;7957;51.608;6.916;2023-02-23T14:19:13;8.70;99.90
15713;DHT22;7957;51.608;6.916;2023-02-23T14:21:59;8.70;99.90
15713;DHT22;7957;51.608;6.916;2023-02-23T14:24:28;8.70;99.90
15713;DHT22;7957;51.608;6.916;2023-02-23T14:27:18;8.70;99.90
15713;DHT22;7957;51.608;6.916;2023-02-23T14:32:50;8.70;99.90
15713;DHT22;7957;51.608;6.916;2023-02-23T14:35:42;8.70;99.90
15713;DHT22;7957;51.608;6.916;2023-02-23T14:38:15;8.70;99.90
15713;DHT22;7957;51.608;6.916;2023-02-23T14:40:45;8.70;99.90
15713;DHT22;7957;51.608;6.916;2023-02-23T14:43:46;8.70;99.90
15713;DHT22;7957;51.608;6.916;2023-02-23T14:46:17;8.70;99.90
15713;DHT22;7957;51.608;6.916;2023-02-23T14:48:59;8.70;99.90
15713;DHT22;7957;51.608;6.916;2023-02-23T14:51:37;8.80;99.90
15713;DHT22;7957;51.608;6.916;2023-02-23T14:54:11;8.80;99.90
15713;DHT22;7957;51.608;6.916;2023-02-23T14:56:47;8.80;99.90
15713;DHT22;7957;51.608;6.916;2023-02-23T14:59:18;8.80;99.90
15713;DHT22;7957;51.608;6.916;2023-02-23T15:01:48;8.80;99.90
15713;DHT22;7957;51.608;6.916;2023-02-23T15:04:17;8.80;99.90
15713;DHT22;7957;51.608;6.916;2023-02-23T15:06:44;8.80;99.90
15713;DHT22;7957;51.608;6.916;2023-02-23T15:09:16;8.80;99.90
15713;DHT22;7957;51.608;6.916;2023-02-23T15:11:48;8.80;99.90
15713;DHT22;7957;51.608;6.916;2023-02-23T15:14:19;8.80;99.90
15713;DHT22;7957;51.608;6.916;2023-02-23T15:16:48;8.80;99.90
15713;DHT22;7957;51.608;6.916;2023-02-23T15:19:33;8.80;99.90
15713;DHT22;7957;51.608;6.916;2023-02-23T15:22:04;8.70;99.90
15713;DHT22;7957;51.608;6.916;2023-02-23T15:24:40;8.70;99.90
15713;DHT22;7957;51.608;6.916;2023-02-23T15:27:17;8.70;99.90
15713;DHT22;7957;51.608;6.916;2023-02-23T15:29:44;8.70;99.90
15713;DHT22;7957;51.608;6.916;2023-02-23T15:32:18;8.70;99.90
15713;DHT22;7957;51.608;6.916;2023-02-23T15:34:45;8.70;99.90
15713;DHT22;7957;51.608;6.916;2023-02-23T15:37:17;8.70;99.90
15713;DHT22;7957;51.608;6.916;2023-02-23T15:39:47;8.70;99.90
15713;DHT22;7957;51.608;6.916;2023-02-23T15:42:22;8.70;99.90
15713;DHT22;7957;51.608;6.916;2023-02-23T15:44:54;8.70;99.90
15713;DHT22;7957;51.608;6.916;2023-02-23T15:47:23;8.70;99.90
15713;DHT22;7957;51.608;6.916;2023-02-23T15:50:04;8.60;99.90
15713;DHT22;7957;51.608;6.916;2023-02-23T15:52:32;8.60;99.90
15713;DHT22;7957;51.608;6.916;2023-02-23T15:55:01;8.60;99.90
15713;DHT22;7957;51.608;6.916;2023-02-23T15:57:33;8.60;99.90
15713;DHT22;7957;51.608;6.916;2023-02-23T16:00:15;8.60;99.90
15713;DHT22;7957;51.608;6.916;2023-02-23T16:02:47;8.60;99.90
15713;DHT22;7957;51.608;6.916;2023-02-23T16:05:19;8.50;99.90
15713;DHT22;7957;51.608;6.916;2023-02-23T16:07:46;8.50;99.90
15713;DHT22;7957;51.608;6.916;2023-02-23T16:10:21;8.50;99.90
15713;DHT22;7957;51.608;6.916;2023-02-23T16:12:52;8.50;99.90
15713;DHT22;7957;51.608;6.916;2023-02-23T16:15:24;8.50;99.90
15713;DHT22;7957;51.608;6.916;2023-02-23T16:17:55;8.50;99.90
15713;DHT22;7957;51.608;6.916;2023-02-23T16:20:30;8.50;99.90
15713;DHT22;7957;51.608;6.916;2023-02-23T16:23:02;8.40;99.90
15713;DHT22;7957;51.608;6.916;2023-02-23T16:25:31;8.40;99.90
15713;DHT22;7957;51.608;6.916;2023-02-23T16:28:01;8.40;99.90
15713;DHT22;7957;51.608;6.916;2023-02-23T16:30:35;8.40;99.90
15713;DHT22;7957;51.608;6.916;2023-02-23T16:33:10;8.40;99.90
15713;DHT22;7957;51.608;6.916;2023-02-23T16:35:42;8.40;99.90
15713;DHT22;7957;51.608;6.916;2023-02-23T16:38:13;8.40;99.90
15713;DHT22;7957;51.608;6.916;2023-02-23T16:40:40;8.40;99.90
15713;DHT22;7957;51.608;6.916;2023-02-23T16:43:09;8.40;99.90
15713;DHT22;7957;51.608;6.916;2023-02-23T16:45:37;8.40;99.90